sensor_id;sensor_type;location;lat;lon;timestamp;P1;durP1;ratioP1;P2;durP2;ratioP2
48881;SDS011;57063;51.406;-2.402;2024-01-25T00:02:01;42.03;;;6.18;;
48881;SDS011;57063;51.406;-2.402;2024-01-25T00:04:28;32.10;;;5.75;;
48881;SDS011;57063;51.406;-2.402;2024-01-25T00:06:53;36.35;;;6.10;;
48881;SDS011;57063;51.406;-2.402;2024-01-25T00:09:18;39.58;;;8.02;;
48881;SDS011;57063;51.406;-2.402;2024-01-25T00:11:44;30.15;;;6.70;;
48881;SDS011;57063;51.406;-2.402;2024-01-25T00:14:09;40.67;;;8.93;;
48881;SDS011;57063;51.406;-2.402;2024-01-25T00:16:34;42.88;;;8.57;;
48881;SDS011;57063;51.406;-2.402;2024-01-25T00:19:00;40.72;;;6.53;;
48881;SDS011;57063;51.406;-2.402;2024-01-25T00:21:25;31.15;;;6.93;;
48881;SDS011;57063;51.406;-2.402;2024-01-25T00:23:50;32.08;;;6.05;;
48881;SDS011;57063;51.406;-2.402;2024-01-25T00:26:16;39.70;;;6.55;;
48881;SDS011;57063;51.406;-2.402;2024-01-25T00:28:41;33.28;;;6.43;;
48881;SDS011;57063;51.406;-2.402;2024-01-25T00:31:06;39.35;;;6.78;;
48881;SDS011;57063;51.406;-2.402;2024-01-25T00:33:32;31.23;;;5.78;;
48881;SDS011;57063;51.406;-2.402;2024-01-25T00:35:57;25.70;;;6.90;;
48881;SDS011;57063;51.406;-2.402;2024-01-25T00:46:13;26.90;;;4.80;;
48881;SDS011;57063;51.406;-2.402;2024-01-25T00:48:39;31.48;;;5.05;;
48881;SDS011;57063;51.406;-2.402;2024-01-25T00:51:06;21.58;;;4.38;;
48881;SDS011;57063;51.406;-2.402;2024-01-25T00:53:33;28.80;;;5.55;;
48881;SDS011;57063;51.406;-2.402;2024-01-25T00:55:58;21.48;;;4.68;;
48881;SDS011;57063;51.406;-2.402;2024-01-25T00:58:24;26.02;;;5.28;;
48881;SDS011;57063;51.406;-2.402;2024-01-25T01:00:50;33.25;;;5.07;;
48881;SDS011;57063;51.406;-2.402;2024-01-25T01:03:16;26.85;;;6.45;;
48881;SDS011;57063;51.406;-2.402;2024-01-25T01:05:43;40.67;;;5.68;;
48881;SDS011;57063;51.406;-2.402;2024-01-25T01:08:09;23.27;;;4.13;;
48881;SDS011;57063;51.406;-2.402;2024-01-25T01:10:35;18.33;;;4.55;;
48881;SDS011;57063;51.406;-2.402;2024-01-25T01:13:01;22.05;;;5.65;;
48881;SDS011;57063;51.406;-2.402;2024-01-25T01:15:26;26.48;;;4.93;;
48881;SDS011;57063;51.406;-2.402;2024-01-25T01:17:51;31.08;;;5.03;;
48881;SDS011;57063;51.406;-2.402;2024-01-25T01:20:17;24.05;;;4.20;;
48881;SDS011;57063;51.406;-2.402;2024-01-25T01:22:43;24.50;;;5.05;;
48881;SDS011;57063;51.406;-2.402;2024-01-25T01:25:08;35.03;;;5.45;;
48881;SDS011;57063;51.406;-2.402;2024-01-25T01:27:34;22.25;;;4.63;;
48881;SDS011;57063;51.406;-2.402;2024-01-25T01:29:59;23.25;;;4.70;;
48881;SDS011;57063;51.406;-2.402;2024-01-25T01:32:24;29.13;;;5.78;;
48881;SDS011;57063;51.406;-2.402;2024-01-25T01:34:50;27.15;;;4.97;;
48881;SDS011;57063;51.406;-2.402;2024-01-25T01:37:15;36.75;;;5.68;;
48881;SDS011;57063;51.406;-2.402;2024-01-25T01:39:40;17.63;;;4.40;;
48881;SDS011;57063;51.406;-2.402;2024-01-25T01:42:06;22.38;;;4.40;;
48881;SDS011;57063;51.406;-2.402;2024-01-25T01:44:31;21.10;;;4.65;;
48881;SDS011;57063;51.406;-2.402;2024-01-25T01:46:57;22.17;;;4.97;;
48881;SDS011;57063;51.406;-2.402;2024-01-25T01:49:22;29.90;;;6.90;;
48881;SDS011;57063;51.406;-2.402;2024-01-25T01:51:48;35.22;;;7.03;;
48881;SDS011;57063;51.406;-2.402;2024-01-25T01:54:14;34.28;;;4.57;;
48881;SDS011;57063;51.406;-2.402;2024-01-25T01:56:40;43.33;;;7.13;;
48881;SDS011;57063;51.406;-2.402;2024-01-25T01:59:09;39.65;;;7.88;;
48881;SDS011;57063;51.406;-2.402;2024-01-25T02:01:38;37.72;;;6.53;;
48881;SDS011;57063;51.406;-2.402;2024-01-25T02:04:06;29.65;;;5.82;;
48881;SDS011;57063;51.406;-2.402;2024-01-25T02:06:32;30.05;;;5.32;;
48881;SDS011;57063;51.406;-2.402;2024-01-25T02:08:57;26.58;;;5.55;;
48881;SDS011;57063;51.406;-2.402;2024-01-25T02:11:26;42.22;;;6.82;;
48881;SDS011;57063;51.406;-2.402;2024-01-25T02:13:52;44.63;;;6.80;;
48881;SDS011;57063;51.406;-2.402;2024-01-25T02:16:17;49.53;;;7.30;;
48881;SDS011;57063;51.406;-2.402;2024-01-25T02:18:44;37.08;;;5.90;;
48881;SDS011;57063;51.406;-2.402;2024-01-25T02:21:09;36.55;;;6.35;;
48881;SDS011;57063;51.406;-2.402;2024-01-25T02:23:34;36.22;;;7.72;;
48881;SDS011;57063;51.406;-2.402;2024-01-25T02:26:00;35.42;;;5.53;;
48881;SDS011;57063;51.406;-2.402;2024-01-25T02:28:25;40.45;;;6.72;;
48881;SDS011;57063;51.406;-2.402;2024-01-25T02:30:51;35.65;;;6.50;;
48881;SDS011;57063;51.406;-2.402;2024-01-25T02:33:16;35.10;;;6.03;;
48881;SDS011;57063;51.406;-2.402;2024-01-25T02:35:42;33.55;;;7.45;;
48881;SDS011;57063;51.406;-2.402;2024-01-25T02:38:07;36.92;;;6.85;;
48881;SDS011;57063;51.406;-2.402;2024-01-25T02:40:32;38.03;;;8.10;;
48881;SDS011;57063;51.406;-2.402;2024-01-25T02:42:58;54.85;;;7.35;;
48881;SDS011;57063;51.406;-2.402;2024-01-25T02:45:23;29.13;;;6.25;;
48881;SDS011;57063;51.406;-2.402;2024-01-25T02:47:49;43.88;;;6.68;;
48881;SDS011;57063;51.406;-2.402;2024-01-25T02:50:14;34.83;;;6.35;;
48881;SDS011;57063;51.406;-2.402;2024-01-25T02:52:40;48.55;;;6.63;;
48881;SDS011;57063;51.406;-2.402;2024-01-25T02:55:05;36.17;;;6.78;;
48881;SDS011;57063;51.406;-2.402;2024-01-25T02:57:31;46.80;;;6.97;;
48881;SDS011;57063;51.406;-2.402;2024-01-25T02:59:57;51.22;;;7.50;;
48881;SDS011;57063;51.406;-2.402;2024-01-25T03:02:22;41.33;;;7.10;;
48881;SDS011;57063;51.406;-2.402;2024-01-25T03:04:48;41.47;;;6.50;;
48881;SDS011;57063;51.406;-2.402;2024-01-25T03:07:13;46.90;;;6.78;;
48881;SDS011;57063;51.406;-2.402;2024-01-25T03:09:39;63.05;;;7.25;;
48881;SDS011;57063;51.406;-2.402;2024-01-25T03:12:04;59.53;;;8.05;;
48881;SDS011;57063;51.406;-2.402;2024-01-25T03:14:30;53.53;;;8.23;;
48881;SDS011;57063;51.406;-2.402;2024-01-25T03:16:55;44.03;;;7.65;;
48881;SDS011;57063;51.406;-2.402;2024-01-25T03:19:23;52.60;;;7.90;;
48881;SDS011;57063;51.406;-2.402;2024-01-25T03:21:50;53.50;;;8.07;;
48881;SDS011;57063;51.406;-2.402;2024-01-25T03:24:16;45.58;;;6.82;;
48881;SDS011;57063;51.406;-2.402;2024-01-25T03:26:41;47.05;;;6.60;;
48881;SDS011;57063;51.406;-2.402;2024-01-25T03:29:06;44.35;;;7.22;;
48881;SDS011;57063;51.406;-2.402;2024-01-25T03:31:32;55.17;;;6.20;;
48881;SDS011;57063;51.406;-2.402;2024-01-25T03:33:58;54.08;;;8.60;;
48881;SDS011;57063;51.406;-2.402;2024-01-25T03:36:23;56.05;;;8.10;;
48881;SDS011;57063;51.406;-2.402;2024-01-25T03:38:48;50.75;;;7.80;;
48881;SDS011;57063;51.406;-2.402;2024-01-25T03:41:14;46.05;;;6.43;;
48881;SDS011;57063;51.406;-2.402;2024-01-25T03:43:39;55.13;;;9.75;;
48881;SDS011;57063;51.406;-2.402;2024-01-25T03:46:04;58.05;;;10.50;;
48881;SDS011;57063;51.406;-2.402;2024-01-25T03:48:30;59.00;;;10.50;;
48881;SDS011;57063;51.406;-2.402;2024-01-25T03:50:55;50.55;;;8.00;;
48881;SDS011;57063;51.406;-2.402;2024-01-25T03:53:21;55.80;;;7.25;;
48881;SDS011;57063;51.406;-2.402;2024-01-25T03:55:47;62.67;;;10.00;;
48881;SDS011;57063;51.406;-2.402;2024-01-25T03:58:14;49.67;;;7.13;;
48881;SDS011;57063;51.406;-2.402;2024-01-25T04:00:40;60.15;;;7.55;;
48881;SDS011;57063;51.406;-2.402;2024-01-25T04:03:05;48.53;;;7.57;;
48881;SDS011;57063;51.406;-2.402;2024-01-25T04:05:32;39.72;;;8.10;;
48881;SDS011;57063;51.406;-2.402;2024-01-25T04:07:57;34.53;;;8.02;;
48881;SDS011;57063;51.406;-2.402;2024-01-25T04:10:23;35.30;;;6.97;;
48881;SDS011;57063;51.406;-2.402;2024-01-25T04:12:48;35.55;;;6.95;;
48881;SDS011;57063;51.406;-2.402;2024-01-25T04:15:13;33.67;;;7.43;;
48881;SDS011;57063;51.406;-2.402;2024-01-25T04:17:39;28.10;;;5.55;;
48881;SDS011;57063;51.406;-2.402;2024-01-25T04:20:04;33.22;;;6.63;;
48881;SDS011;57063;51.406;-2.402;2024-01-25T04:22:30;34.78;;;6.53;;
48881;SDS011;57063;51.406;-2.402;2024-01-25T04:24:56;31.30;;;6.35;;
48881;SDS011;57063;51.406;-2.402;2024-01-25T04:27:21;33.63;;;5.97;;
48881;SDS011;57063;51.406;-2.402;2024-01-25T04:29:46;29.15;;;7.32;;
48881;SDS011;57063;51.406;-2.402;2024-01-25T04:32:13;23.25;;;5.45;;
48881;SDS011;57063;51.406;-2.402;2024-01-25T04:34:38;45.20;;;8.13;;
48881;SDS011;57063;51.406;-2.402;2024-01-25T04:37:03;28.63;;;5.47;;
48881;SDS011;57063;51.406;-2.402;2024-01-25T04:39:29;36.85;;;5.35;;
48881;SDS011;57063;51.406;-2.402;2024-01-25T04:41:54;21.98;;;4.53;;
48881;SDS011;57063;51.406;-2.402;2024-01-25T04:44:19;24.73;;;5.88;;
48881;SDS011;57063;51.406;-2.402;2024-01-25T04:46:45;21.27;;;4.53;;
48881;SDS011;57063;51.406;-2.402;2024-01-25T04:49:10;21.08;;;5.55;;
48881;SDS011;57063;51.406;-2.402;2024-01-25T04:51:36;24.15;;;5.22;;
48881;SDS011;57063;51.406;-2.402;2024-01-25T04:54:01;25.38;;;5.15;;
48881;SDS011;57063;51.406;-2.402;2024-01-25T04:56:27;26.20;;;5.25;;
48881;SDS011;57063;51.406;-2.402;2024-01-25T04:58:53;22.30;;;4.97;;
48881;SDS011;57063;51.406;-2.402;2024-01-25T05:01:18;14.75;;;3.92;;
48881;SDS011;57063;51.406;-2.402;2024-01-25T05:03:44;12.27;;;3.67;;
48881;SDS011;57063;51.406;-2.402;2024-01-25T05:06:09;18.60;;;4.88;;
48881;SDS011;57063;51.406;-2.402;2024-01-25T05:08:35;14.05;;;4.40;;
48881;SDS011;57063;51.406;-2.402;2024-01-25T05:11:00;10.13;;;3.72;;
48881;SDS011;57063;51.406;-2.402;2024-01-25T05:13:26;13.18;;;3.72;;
48881;SDS011;57063;51.406;-2.402;2024-01-25T05:15:51;7.70;;;3.60;;
48881;SDS011;57063;51.406;-2.402;2024-01-25T05:18:16;6.32;;;3.00;;
48881;SDS011;57063;51.406;-2.402;2024-01-25T05:20:42;4.88;;;2.83;;
48881;SDS011;57063;51.406;-2.402;2024-01-25T05:23:07;5.63;;;2.70;;
48881;SDS011;57063;51.406;-2.402;2024-01-25T05:25:32;7.88;;;2.90;;
48881;SDS011;57063;51.406;-2.402;2024-01-25T05:27:58;5.07;;;1.88;;
48881;SDS011;57063;51.406;-2.402;2024-01-25T05:30:24;7.70;;;1.90;;
48881;SDS011;57063;51.406;-2.402;2024-01-25T05:32:50;6.38;;;2.13;;
48881;SDS011;57063;51.406;-2.402;2024-01-25T05:35:16;5.38;;;2.40;;
48881;SDS011;57063;51.406;-2.402;2024-01-25T05:37:42;7.22;;;2.67;;
48881;SDS011;57063;51.406;-2.402;2024-01-25T05:40:08;5.40;;;3.08;;
48881;SDS011;57063;51.406;-2.402;2024-01-25T05:42:34;7.25;;;3.10;;
48881;SDS011;57063;51.406;-2.402;2024-01-25T05:45:00;4.70;;;2.53;;
48881;SDS011;57063;51.406;-2.402;2024-01-25T05:47:25;3.67;;;2.70;;
48881;SDS011;57063;51.406;-2.402;2024-01-25T05:49:51;6.30;;;2.58;;
48881;SDS011;57063;51.406;-2.402;2024-01-25T05:52:16;3.95;;;2.60;;
48881;SDS011;57063;51.406;-2.402;2024-01-25T05:54:42;3.50;;;2.50;;
48881;SDS011;57063;51.406;-2.402;2024-01-25T05:57:08;4.05;;;2.65;;
48881;SDS011;57063;51.406;-2.402;2024-01-25T05:59:34;4.60;;;2.30;;
48881;SDS011;57063;51.406;-2.402;2024-01-25T06:01:59;3.55;;;1.98;;
48881;SDS011;57063;51.406;-2.402;2024-01-25T06:04:25;5.85;;;2.47;;
48881;SDS011;57063;51.406;-2.402;2024-01-25T06:06:50;3.67;;;2.22;;
48881;SDS011;57063;51.406;-2.402;2024-01-25T06:09:15;2.42;;;1.67;;
48881;SDS011;57063;51.406;-2.402;2024-01-25T06:11:41;2.83;;;1.80;;
48881;SDS011;57063;51.406;-2.402;2024-01-25T06:14:06;3.30;;;1.88;;
48881;SDS011;57063;51.406;-2.402;2024-01-25T06:16:32;2.78;;;1.83;;
48881;SDS011;57063;51.406;-2.402;2024-01-25T06:18:58;3.00;;;1.85;;
48881;SDS011;57063;51.406;-2.402;2024-01-25T06:21:25;6.05;;;2.38;;
48881;SDS011;57063;51.406;-2.402;2024-01-25T06:23:50;7.00;;;3.38;;
48881;SDS011;57063;51.406;-2.402;2024-01-25T06:26:16;6.70;;;2.70;;
48881;SDS011;57063;51.406;-2.402;2024-01-25T06:28:41;5.45;;;3.08;;
48881;SDS011;57063;51.406;-2.402;2024-01-25T06:31:06;6.28;;;3.30;;
48881;SDS011;57063;51.406;-2.402;2024-01-25T06:33:32;4.35;;;2.65;;
48881;SDS011;57063;51.406;-2.402;2024-01-25T06:35:57;4.10;;;2.85;;
48881;SDS011;57063;51.406;-2.402;2024-01-25T06:38:23;5.88;;;3.17;;
48881;SDS011;57063;51.406;-2.402;2024-01-25T06:40:48;3.80;;;2.30;;
48881;SDS011;57063;51.406;-2.402;2024-01-25T06:43:13;7.68;;;3.45;;
48881;SDS011;57063;51.406;-2.402;2024-01-25T06:45:39;6.93;;;3.00;;
48881;SDS011;57063;51.406;-2.402;2024-01-25T06:48:05;4.63;;;2.97;;
48881;SDS011;57063;51.406;-2.402;2024-01-25T06:50:31;7.20;;;3.38;;
48881;SDS011;57063;51.406;-2.402;2024-01-25T06:52:57;6.85;;;3.17;;
48881;SDS011;57063;51.406;-2.402;2024-01-25T06:55:22;5.05;;;3.15;;
48881;SDS011;57063;51.406;-2.402;2024-01-25T06:57:48;6.50;;;3.35;;
48881;SDS011;57063;51.406;-2.402;2024-01-25T07:00:13;6.30;;;3.67;;
48881;SDS011;57063;51.406;-2.402;2024-01-25T07:02:40;5.70;;;3.45;;
48881;SDS011;57063;51.406;-2.402;2024-01-25T07:05:07;7.57;;;4.15;;
48881;SDS011;57063;51.406;-2.402;2024-01-25T07:07:33;7.20;;;3.83;;
48881;SDS011;57063;51.406;-2.402;2024-01-25T07:09:58;11.50;;;3.35;;
48881;SDS011;57063;51.406;-2.402;2024-01-25T07:12:23;6.90;;;3.53;;
48881;SDS011;57063;51.406;-2.402;2024-01-25T07:14:49;6.35;;;3.58;;
48881;SDS011;57063;51.406;-2.402;2024-01-25T07:17:14;8.20;;;3.97;;
48881;SDS011;57063;51.406;-2.402;2024-01-25T07:19:39;7.72;;;4.13;;
48881;SDS011;57063;51.406;-2.402;2024-01-25T07:22:05;8.57;;;4.93;;
48881;SDS011;57063;51.406;-2.402;2024-01-25T07:24:30;10.98;;;4.95;;
48881;SDS011;57063;51.406;-2.402;2024-01-25T07:26:56;12.18;;;5.50;;
48881;SDS011;57063;51.406;-2.402;2024-01-25T07:29:22;16.65;;;6.85;;
48881;SDS011;57063;51.406;-2.402;2024-01-25T07:31:48;9.68;;;5.10;;
48881;SDS011;57063;51.406;-2.402;2024-01-25T07:34:14;5.63;;;4.57;;
48881;SDS011;57063;51.406;-2.402;2024-01-25T07:36:39;12.82;;;5.05;;
48881;SDS011;57063;51.406;-2.402;2024-01-25T07:39:04;15.50;;;5.60;;
48881;SDS011;57063;51.406;-2.402;2024-01-25T07:41:30;17.95;;;5.55;;
48881;SDS011;57063;51.406;-2.402;2024-01-25T07:43:55;13.52;;;5.45;;
48881;SDS011;57063;51.406;-2.402;2024-01-25T07:46:21;11.13;;;4.78;;
48881;SDS011;57063;51.406;-2.402;2024-01-25T07:48:49;18.23;;;4.78;;
48881;SDS011;57063;51.406;-2.402;2024-01-25T07:51:14;16.58;;;5.10;;
48881;SDS011;57063;51.406;-2.402;2024-01-25T07:53:40;15.13;;;4.60;;
48881;SDS011;57063;51.406;-2.402;2024-01-25T07:56:08;14.30;;;4.05;;
48881;SDS011;57063;51.406;-2.402;2024-01-25T07:58:35;16.92;;;4.70;;
48881;SDS011;57063;51.406;-2.402;2024-01-25T08:01:04;15.35;;;3.90;;
48881;SDS011;57063;51.406;-2.402;2024-01-25T08:03:31;17.48;;;4.03;;
48881;SDS011;57063;51.406;-2.402;2024-01-25T08:05:57;13.60;;;3.25;;
48881;SDS011;57063;51.406;-2.402;2024-01-25T08:08:23;14.38;;;3.38;;
48881;SDS011;57063;51.406;-2.402;2024-01-25T08:10:49;16.13;;;3.72;;
48881;SDS011;57063;51.406;-2.402;2024-01-25T08:13:14;13.13;;;3.25;;
48881;SDS011;57063;51.406;-2.402;2024-01-25T08:15:39;14.00;;;3.85;;
48881;SDS011;57063;51.406;-2.402;2024-01-25T08:18:05;13.13;;;3.28;;
48881;SDS011;57063;51.406;-2.402;2024-01-25T08:20:31;13.55;;;2.67;;
48881;SDS011;57063;51.406;-2.402;2024-01-25T08:22:56;5.82;;;2.00;;
48881;SDS011;57063;51.406;-2.402;2024-01-25T08:25:22;10.55;;;2.53;;
48881;SDS011;57063;51.406;-2.402;2024-01-25T08:27:48;17.42;;;2.95;;
48881;SDS011;57063;51.406;-2.402;2024-01-25T08:30:14;8.10;;;2.42;;
48881;SDS011;57063;51.406;-2.402;2024-01-25T08:32:39;11.88;;;2.10;;
48881;SDS011;57063;51.406;-2.402;2024-01-25T08:35:05;4.95;;;1.80;;
48881;SDS011;57063;51.406;-2.402;2024-01-25T08:37:30;6.95;;;1.48;;
48881;SDS011;57063;51.406;-2.402;2024-01-25T08:39:56;10.05;;;1.98;;
48881;SDS011;57063;51.406;-2.402;2024-01-25T08:42:21;11.07;;;1.90;;
48881;SDS011;57063;51.406;-2.402;2024-01-25T08:44:47;8.48;;;2.17;;
48881;SDS011;57063;51.406;-2.402;2024-01-25T08:47:16;9.00;;;2.05;;
48881;SDS011;57063;51.406;-2.402;2024-01-25T08:49:42;5.68;;;1.80;;
48881;SDS011;57063;51.406;-2.402;2024-01-25T08:52:07;8.85;;;2.33;;
48881;SDS011;57063;51.406;-2.402;2024-01-25T08:54:33;11.77;;;1.80;;
48881;SDS011;57063;51.406;-2.402;2024-01-25T08:56:59;12.43;;;2.17;;
48881;SDS011;57063;51.406;-2.402;2024-01-25T08:59:24;7.45;;;2.20;;
48881;SDS011;57063;51.406;-2.402;2024-01-25T09:01:51;10.30;;;2.42;;
48881;SDS011;57063;51.406;-2.402;2024-01-25T09:04:17;9.50;;;3.65;;
48881;SDS011;57063;51.406;-2.402;2024-01-25T09:06:43;11.77;;;2.60;;
48881;SDS011;57063;51.406;-2.402;2024-01-25T09:09:08;11.95;;;3.05;;
48881;SDS011;57063;51.406;-2.402;2024-01-25T09:11:35;13.13;;;2.20;;
48881;SDS011;57063;51.406;-2.402;2024-01-25T09:14:01;11.90;;;2.40;;
48881;SDS011;57063;51.406;-2.402;2024-01-25T09:16:26;10.63;;;1.80;;
48881;SDS011;57063;51.406;-2.402;2024-01-25T09:18:52;10.20;;;1.85;;
48881;SDS011;57063;51.406;-2.402;2024-01-25T09:21:17;9.35;;;1.75;;
48881;SDS011;57063;51.406;-2.402;2024-01-25T09:23:42;10.13;;;2.63;;
48881;SDS011;57063;51.406;-2.402;2024-01-25T09:26:08;7.35;;;1.98;;
48881;SDS011;57063;51.406;-2.402;2024-01-25T09:28:33;10.45;;;1.60;;
48881;SDS011;57063;51.406;-2.402;2024-01-25T09:30:59;10.95;;;1.85;;
48881;SDS011;57063;51.406;-2.402;2024-01-25T09:33:24;12.75;;;2.20;;
48881;SDS011;57063;51.406;-2.402;2024-01-25T09:35:50;10.13;;;1.52;;
48881;SDS011;57063;51.406;-2.402;2024-01-25T09:38:15;8.65;;;2.70;;
48881;SDS011;57063;51.406;-2.402;2024-01-25T09:40:40;13.80;;;3.33;;
48881;SDS011;57063;51.406;-2.402;2024-01-25T09:43:06;12.07;;;1.95;;
48881;SDS011;57063;51.406;-2.402;2024-01-25T09:45:32;7.70;;;2.13;;
48881;SDS011;57063;51.406;-2.402;2024-01-25T09:47:59;5.82;;;1.60;;
48881;SDS011;57063;51.406;-2.402;2024-01-25T09:50:25;13.43;;;1.70;;
48881;SDS011;57063;51.406;-2.402;2024-01-25T09:52:54;15.10;;;2.33;;
48881;SDS011;57063;51.406;-2.402;2024-01-25T09:55:21;5.88;;;1.83;;
48881;SDS011;57063;51.406;-2.402;2024-01-25T09:57:50;9.00;;;1.70;;
48881;SDS011;57063;51.406;-2.402;2024-01-25T10:00:19;12.52;;;1.95;;
48881;SDS011;57063;51.406;-2.402;2024-01-25T10:02:47;8.43;;;1.58;;
48881;SDS011;57063;51.406;-2.402;2024-01-25T10:05:13;15.77;;;2.65;;
48881;SDS011;57063;51.406;-2.402;2024-01-25T10:07:42;18.63;;;3.08;;
48881;SDS011;57063;51.406;-2.402;2024-01-25T10:10:09;15.75;;;3.13;;
48881;SDS011;57063;51.406;-2.402;2024-01-25T10:12:36;13.05;;;2.95;;
48881;SDS011;57063;51.406;-2.402;2024-01-25T10:15:03;12.25;;;1.95;;
48881;SDS011;57063;51.406;-2.402;2024-01-25T10:17:29;8.48;;;1.77;;
48881;SDS011;57063;51.406;-2.402;2024-01-25T10:19:55;13.85;;;2.05;;
48881;SDS011;57063;51.406;-2.402;2024-01-25T10:22:21;12.05;;;2.10;;
48881;SDS011;57063;51.406;-2.402;2024-01-25T10:24:46;11.10;;;2.05;;
48881;SDS011;57063;51.406;-2.402;2024-01-25T10:27:15;11.57;;;1.83;;
48881;SDS011;57063;51.406;-2.402;2024-01-25T10:29:41;7.47;;;1.88;;
48881;SDS011;57063;51.406;-2.402;2024-01-25T10:32:07;12.07;;;1.77;;
48881;SDS011;57063;51.406;-2.402;2024-01-25T10:34:34;16.65;;;2.78;;
48881;SDS011;57063;51.406;-2.402;2024-01-25T10:37:01;18.52;;;2.30;;
48881;SDS011;57063;51.406;-2.402;2024-01-25T10:39:30;17.55;;;2.03;;
48881;SDS011;57063;51.406;-2.402;2024-01-25T10:41:56;17.40;;;2.72;;
48881;SDS011;57063;51.406;-2.402;2024-01-25T10:44:23;12.30;;;2.22;;
48881;SDS011;57063;51.406;-2.402;2024-01-25T10:46:49;7.20;;;1.65;;
48881;SDS011;57063;51.406;-2.402;2024-01-25T10:49:15;21.65;;;2.65;;
48881;SDS011;57063;51.406;-2.402;2024-01-25T10:51:42;14.20;;;1.65;;
48881;SDS011;57063;51.406;-2.402;2024-01-25T10:54:09;14.88;;;1.83;;
48881;SDS011;57063;51.406;-2.402;2024-01-25T10:56:36;12.30;;;2.50;;
48881;SDS011;57063;51.406;-2.402;2024-01-25T10:59:02;14.27;;;1.65;;
48881;SDS011;57063;51.406;-2.402;2024-01-25T11:01:28;20.15;;;3.70;;
48881;SDS011;57063;51.406;-2.402;2024-01-25T11:03:54;19.35;;;2.25;;
48881;SDS011;57063;51.406;-2.402;2024-01-25T11:06:20;14.32;;;2.13;;
48881;SDS011;57063;51.406;-2.402;2024-01-25T11:08:47;10.80;;;2.20;;
48881;SDS011;57063;51.406;-2.402;2024-01-25T11:11:13;10.52;;;2.78;;
48881;SDS011;57063;51.406;-2.402;2024-01-25T11:13:43;21.52;;;2.65;;
48881;SDS011;57063;51.406;-2.402;2024-01-25T11:16:16;13.38;;;2.90;;
48881;SDS011;57063;51.406;-2.402;2024-01-25T11:22:02;14.70;;;2.78;;
48881;SDS011;57063;51.406;-2.402;2024-01-25T11:24:05;11.82;;;1.95;;
48881;SDS011;57063;51.406;-2.402;2024-01-25T11:26:34;11.25;;;2.25;;
48881;SDS011;57063;51.406;-2.402;2024-01-25T11:28:59;12.52;;;2.33;;
48881;SDS011;57063;51.406;-2.402;2024-01-25T11:31:25;14.52;;;2.50;;
48881;SDS011;57063;51.406;-2.402;2024-01-25T11:33:53;9.85;;;1.85;;
48881;SDS011;57063;51.406;-2.402;2024-01-25T11:36:22;8.50;;;1.40;;
48881;SDS011;57063;51.406;-2.402;2024-01-25T11:38:47;6.70;;;1.20;;
48881;SDS011;57063;51.406;-2.402;2024-01-25T11:41:13;9.35;;;1.60;;
48881;SDS011;57063;51.406;-2.402;2024-01-25T11:43:39;11.40;;;1.48;;
48881;SDS011;57063;51.406;-2.402;2024-01-25T11:46:05;7.90;;;1.50;;
48881;SDS011;57063;51.406;-2.402;2024-01-25T11:48:30;9.40;;;1.10;;
48881;SDS011;57063;51.406;-2.402;2024-01-25T11:50:58;13.18;;;2.67;;
48881;SDS011;57063;51.406;-2.402;2024-01-25T11:53:24;12.40;;;2.08;;
48881;SDS011;57063;51.406;-2.402;2024-01-25T11:55:50;10.07;;;1.77;;
48881;SDS011;57063;51.406;-2.402;2024-01-25T11:58:16;4.75;;;1.50;;
48881;SDS011;57063;51.406;-2.402;2024-01-25T12:00:41;9.82;;;2.30;;
48881;SDS011;57063;51.406;-2.402;2024-01-25T12:03:07;10.35;;;2.70;;
48881;SDS011;57063;51.406;-2.402;2024-01-25T12:05:34;11.32;;;2.75;;
48881;SDS011;57063;51.406;-2.402;2024-01-25T12:07:59;9.77;;;2.40;;
48881;SDS011;57063;51.406;-2.402;2024-01-25T12:10:25;10.23;;;2.78;;
48881;SDS011;57063;51.406;-2.402;2024-01-25T12:12:51;9.40;;;2.30;;
48881;SDS011;57063;51.406;-2.402;2024-01-25T12:15:16;8.38;;;2.00;;
48881;SDS011;57063;51.406;-2.402;2024-01-25T12:17:42;6.97;;;2.13;;
48881;SDS011;57063;51.406;-2.402;2024-01-25T12:20:07;9.35;;;2.90;;
48881;SDS011;57063;51.406;-2.402;2024-01-25T12:22:36;7.65;;;2.30;;
48881;SDS011;57063;51.406;-2.402;2024-01-25T12:25:02;10.80;;;3.08;;
48881;SDS011;57063;51.406;-2.402;2024-01-25T12:27:32;5.95;;;2.38;;
48881;SDS011;57063;51.406;-2.402;2024-01-25T12:29:58;12.93;;;2.42;;
48881;SDS011;57063;51.406;-2.402;2024-01-25T12:32:24;7.63;;;3.15;;
48881;SDS011;57063;51.406;-2.402;2024-01-25T12:34:53;6.47;;;2.15;;
48881;SDS011;57063;51.406;-2.402;2024-01-25T12:37:22;12.88;;;2.50;;
48881;SDS011;57063;51.406;-2.402;2024-01-25T12:39:48;9.18;;;2.75;;
48881;SDS011;57063;51.406;-2.402;2024-01-25T12:42:13;7.50;;;2.40;;
48881;SDS011;57063;51.406;-2.402;2024-01-25T12:44:39;4.38;;;1.90;;
48881;SDS011;57063;51.406;-2.402;2024-01-25T12:47:05;5.38;;;1.30;;
48881;SDS011;57063;51.406;-2.402;2024-01-25T12:49:32;6.88;;;1.75;;
48881;SDS011;57063;51.406;-2.402;2024-01-25T12:51:57;7.57;;;3.05;;
48881;SDS011;57063;51.406;-2.402;2024-01-25T12:54:23;8.45;;;2.75;;
48881;SDS011;57063;51.406;-2.402;2024-01-25T12:56:49;7.68;;;1.95;;
48881;SDS011;57063;51.406;-2.402;2024-01-25T12:59:15;10.27;;;2.80;;
48881;SDS011;57063;51.406;-2.402;2024-01-25T13:01:41;9.05;;;2.90;;
48881;SDS011;57063;51.406;-2.402;2024-01-25T13:04:06;9.32;;;2.50;;
48881;SDS011;57063;51.406;-2.402;2024-01-25T13:06:31;5.13;;;2.30;;
48881;SDS011;57063;51.406;-2.402;2024-01-25T13:08:57;3.97;;;1.73;;
48881;SDS011;57063;51.406;-2.402;2024-01-25T13:11:22;5.18;;;2.03;;
48881;SDS011;57063;51.406;-2.402;2024-01-25T13:13:48;4.75;;;1.92;;
48881;SDS011;57063;51.406;-2.402;2024-01-25T13:16:13;8.77;;;1.45;;
48881;SDS011;57063;51.406;-2.402;2024-01-25T13:18:38;4.78;;;1.08;;
48881;SDS011;57063;51.406;-2.402;2024-01-25T13:21:04;5.93;;;1.63;;
48881;SDS011;57063;51.406;-2.402;2024-01-25T13:23:29;8.02;;;1.38;;
48881;SDS011;57063;51.406;-2.402;2024-01-25T13:25:55;7.13;;;1.73;;
48881;SDS011;57063;51.406;-2.402;2024-01-25T13:28:20;9.43;;;1.48;;
48881;SDS011;57063;51.406;-2.402;2024-01-25T13:30:45;8.55;;;1.23;;
48881;SDS011;57063;51.406;-2.402;2024-01-25T13:33:11;10.00;;;2.08;;
48881;SDS011;57063;51.406;-2.402;2024-01-25T13:35:36;6.93;;;1.60;;
48881;SDS011;57063;51.406;-2.402;2024-01-25T13:38:02;5.22;;;1.58;;
48881;SDS011;57063;51.406;-2.402;2024-01-25T13:40:27;6.97;;;1.40;;
48881;SDS011;57063;51.406;-2.402;2024-01-25T13:42:53;7.78;;;1.40;;
48881;SDS011;57063;51.406;-2.402;2024-01-25T13:45:20;7.65;;;1.30;;
48881;SDS011;57063;51.406;-2.402;2024-01-25T13:47:45;4.22;;;1.02;;
48881;SDS011;57063;51.406;-2.402;2024-01-25T13:50:11;6.38;;;1.80;;
48881;SDS011;57063;51.406;-2.402;2024-01-25T13:52:36;7.18;;;1.25;;
48881;SDS011;57063;51.406;-2.402;2024-01-25T13:55:02;5.88;;;1.65;;
48881;SDS011;57063;51.406;-2.402;2024-01-25T13:57:27;9.45;;;2.35;;
48881;SDS011;57063;51.406;-2.402;2024-01-25T13:59:53;8.38;;;2.00;;
48881;SDS011;57063;51.406;-2.402;2024-01-25T14:02:19;7.88;;;2.42;;
48881;SDS011;57063;51.406;-2.402;2024-01-25T14:04:44;4.63;;;1.20;;
48881;SDS011;57063;51.406;-2.402;2024-01-25T14:07:10;9.27;;;2.05;;
48881;SDS011;57063;51.406;-2.402;2024-01-25T14:09:35;8.70;;;1.75;;
48881;SDS011;57063;51.406;-2.402;2024-01-25T14:12:02;7.68;;;1.70;;
48881;SDS011;57063;51.406;-2.402;2024-01-25T14:14:28;12.88;;;2.22;;
48881;SDS011;57063;51.406;-2.402;2024-01-25T14:16:54;11.60;;;2.38;;
48881;SDS011;57063;51.406;-2.402;2024-01-25T14:19:19;15.65;;;2.60;;
48881;SDS011;57063;51.406;-2.402;2024-01-25T14:21:45;9.70;;;2.30;;
48881;SDS011;57063;51.406;-2.402;2024-01-25T14:24:12;12.13;;;2.08;;
48881;SDS011;57063;51.406;-2.402;2024-01-25T14:26:38;12.23;;;2.38;;
48881;SDS011;57063;51.406;-2.402;2024-01-25T14:29:04;8.95;;;2.05;;